Time;durP1;ratioP1;P1;durP2;ratioP2;P2;SDS_P1;SDS_P2;PMS_P1;PMS_P2;Temp;Humidity;BMP_temperature;BMP_pressure;BME280_temperature;BME280_humidity;BME280_pressure;Samples;Min_cycle;Max_cycle;Signal;HPM_P1;HPM_P2
2021/07/21 00:01:15;;;;;;;17.10;9.15;;;;;;;15.53;100.00;101174.31;4867155;29;20025;-80
2021/07/21 00:03:40;;;;;;;14.73;9.07;;;;;;;15.46;100.00;101170.19;4867030;29;20124;-80
2021/07/21 00:06:05;;;;;;;15.52;9.07;;;;;;;15.47;100.00;101171.88;4866368;29;20041;-81
2021/07/21 00:08:31;;;;;;;16.38;9.52;;;;;;;15.47;100.00;101171.88;4850062;29;20040;-81
2021/07/21 00:13:40;;;;;;;15.03;9.33;;;;;;;15.41;100.00;101170.28;4866977;29;20101;-82
2021/07/21 00:16:14;;;;;;;17.95;9.50;;;;;;;15.41;100.00;101171.16;4849655;29;20357;-81
2021/07/21 00:21:13;;;;;;;15.43;9.40;;;;;;;15.46;100.00;101167.56;4867155;29;20463;-81
2021/07/21 00:23:39;;;;;;;17.25;9.50;;;;;;;15.47;100.00;101166.66;4866672;29;20033;-81
2021/07/21 00:26:05;;;;;;;13.75;9.38;;;;;;;15.45;100.00;101158.84;4849595;29;20030;-82
2021/07/21 00:28:30;;;;;;;16.00;9.93;;;;;;;15.45;100.00;101169.28;4849722;29;20116;-82
2021/07/21 00:30:56;;;;;;;17.40;9.68;;;;;;;15.40;100.00;101164.22;4866718;29;20081;-82
2021/07/21 00:33:21;;;;;;;17.70;9.73;;;;;;;15.45;100.00;101164.06;4849727;29;20116;-82
2021/07/21 00:35:47;;;;;;;15.70;9.93;;;;;;;15.41;100.00;101159.84;4866485;29;20054;-82
2021/07/21 00:38:13;;;;;;;14.50;9.85;;;;;;;15.38;100.00;101159.94;4866668;29;20089;-82
2021/07/21 00:40:39;;;;;;;18.17;9.50;;;;;;;15.41;100.00;101158.06;4849582;29;20478;-82
2021/07/21 00:43:04;;;;;;;15.60;10.10;;;;;;;15.39;100.00;101159.00;4849762;29;20033;-82
2021/07/21 00:45:30;;;;;;;17.63;10.48;;;;;;;15.36;100.00;101152.16;4849874;29;20033;-82
2021/07/21 00:47:55;;;;;;;15.65;10.93;;;;;;;15.34;100.00;101160.94;4850595;29;20036;-82
2021/07/21 00:50:21;;;;;;;18.77;10.77;;;;;;;15.26;100.00;101150.66;4867197;29;20065;-82
2021/07/21 00:52:48;;;;;;;18.35;10.27;;;;;;;15.34;100.00;101158.31;4849839;29;20022;-82
2021/07/21 00:55:15;;;;;;;25.40;11.40;;;;;;;15.22;100.00;101149.06;4851187;29;20029;-82
2021/07/21 00:57:41;;;;;;;16.67;11.25;;;;;;;15.23;100.00;101145.53;4849117;29;20052;-82
2021/07/21 01:00:10;;;;;;;18.20;11.18;;;;;;;15.28;100.00;101141.03;4866364;29;20376;-82
2021/07/21 01:02:35;;;;;;;18.35;11.32;;;;;;;15.23;100.00;101148.13;4866566;29;20065;-82
2021/07/21 01:05:04;;;;;;;20.23;11.57;;;;;;;15.32;100.00;101155.72;4850502;29;20025;-82
2021/07/21 01:07:29;;;;;;;24.27;11.85;;;;;;;15.28;100.00;101156.72;4850173;29;20033;-82
2021/07/21 01:09:54;;;;;;;18.35;11.57;;;;;;;15.31;100.00;101151.41;4851220;29;20074;-82
2021/07/21 01:12:33;;;;;;;20.38;11.18;;;;;;;15.25;100.00;101154.19;4851021;29;20021;-82
2021/07/21 01:15:16;;;;;;;20.55;11.82;;;;;;;15.27;100.00;101157.63;4851455;29;20032;-82
2021/07/21 01:18:02;;;;;;;19.00;11.05;;;;;;;15.28;100.00;101158.47;4850875;29;20032;-82
2021/07/21 01:20:50;;;;;;;19.70;12.20;;;;;;;15.24;100.00;101155.09;4868414;29;20089;-82
2021/07/21 01:23:44;;;;;;;19.10;11.70;;;;;;;15.26;100.00;101161.13;4851641;29;20034;-82
2021/07/21 01:26:12;;;;;;;19.13;11.82;;;;;;;15.22;100.00;101159.50;4851425;29;20093;-82
2021/07/21 01:28:42;;;;;;;17.77;12.00;;;;;;;15.26;100.00;101157.66;4853956;29;20025;-82
2021/07/21 01:31:12;;;;;;;18.42;11.82;;;;;;;15.24;100.00;101157.72;4863644;29;20026;-82
2021/07/21 01:33:39;;;;;;;16.15;11.05;;;;;;;15.23;100.00;101158.59;4863591;29;20033;-82
2021/07/21 01:36:24;;;;;;;20.38;11.80;;;;;;;15.20;100.00;101158.69;4863390;29;20033;-82
2021/07/21 01:38:53;;;;;;;19.88;12.40;;;;;;;15.25;100.00;101161.19;4863878;29;20040;-82
2021/07/21 01:41:21;;;;;;;19.42;11.65;;;;;;;15.23;100.00;101158.59;4860589;29;20411;-81
2021/07/21 01:43:50;;;;;;;19.65;11.95;;;;;;;15.22;100.00;101163.88;4849176;29;20037;-81
2021/07/21 01:46:21;;;;;;;19.35;12.05;;;;;;;15.23;100.00;101166.44;4849611;29;20025;-82
2021/07/21 01:48:49;;;;;;;22.88;12.05;;;;;;;15.28;100.00;101164.56;4849450;29;20036;-82
2021/07/21 01:51:15;;;;;;;21.42;11.68;;;;;;;15.20;100.00;101161.28;4849863;29;20025;-82
2021/07/21 01:53:43;;;;;;;24.02;11.68;;;;;;;15.24;100.00;101162.94;4849893;29;20025;-82
2021/07/21 01:56:10;;;;;;;20.67;11.85;;;;;;;15.26;100.00;101161.13;4848921;29;20025;-82
2021/07/21 01:58:37;;;;;;;16.48;11.45;;;;;;;15.29;100.00;101161.03;4865672;29;20054;-81
2021/07/21 02:01:06;;;;;;;16.23;11.68;;;;;;;15.18;100.00;101158.75;4849163;29;20364;-82
2021/07/21 02:03:33;;;;;;;20.42;12.27;;;;;;;15.20;100.00;101161.28;4865892;29;20041;-82
2021/07/21 02:06:02;;;;;;;18.70;11.52;;;;;;;15.12;100.00;101158.91;4849601;29;20025;-82
2021/07/21 02:08:28;;;;;;;16.10;11.18;;;;;;;15.14;100.00;101158.84;4848507;29;20025;-82
2021/07/21 02:10:57;;;;;;;16.30;10.73;;;;;;;15.15;100.00;101155.34;4848968;29;20025;-81
2021/07/21 02:13:28;;;;;;;17.80;11.35;;;;;;;15.15;100.00;101161.44;4849052;29;20058;-81
2021/07/21 02:15:54;;;;;;;18.15;10.90;;;;;;;15.14;100.00;101161.47;4845316;29;20070;-82
2021/07/21 02:18:20;;;;;;;15.73;10.52;;;;;;;15.12;100.00;101163.28;4844799;29;20032;-82
2021/07/21 02:20:46;;;;;;;15.52;10.52;;;;;;;15.10;100.00;101160.69;4844742;29;20628;-82
2021/07/21 02:23:16;;;;;;;20.17;11.05;;;;;;;15.10;100.00;101154.63;4844584;29;20321;-82
2021/07/21 02:25:42;;;;;;;18.42;10.98;;;;;;;15.05;100.00;101154.72;4844319;29;20549;-82
2021/07/21 02:28:07;;;;;;;17.50;11.23;;;;;;;14.96;100.00;101153.25;4861016;29;20063;-81
2021/07/21 02:30:34;;;;;;;17.13;11.18;;;;;;;14.91;100.00;101155.09;4861691;29;20096;-82
2021/07/21 02:33:09;;;;;;;19.67;11.02;;;;;;;14.85;100.00;101149.19;4844592;29;20066;-82
2021/07/21 02:35:35;;;;;;;17.13;10.02;;;;;;;14.79;100.00;101152.81;4861216;29;20451;-82
2021/07/21 02:38:00;;;;;;;18.52;10.63;;;;;;;14.72;100.00;101152.13;4844529;29;20026;-82
2021/07/21 02:40:27;;;;;;;19.00;10.45;;;;;;;14.70;100.00;101145.22;4844397;29;20029;-82
2021/07/21 02:42:52;;;;;;;17.50;10.07;;;;;;;14.64;100.00;101141.00;4844503;29;20029;-82
2021/07/21 02:45:18;;;;;;;14.63;9.60;;;;;;;14.65;100.00;101153.16;4861403;29;20169;-81
2021/07/21 02:47:43;;;;;;;18.70;10.90;;;;;;;14.66;100.00;101151.44;4860859;29;20057;-81
2021/07/21 02:50:11;;;;;;;16.27;10.15;;;;;;;14.69;100.00;101147.00;4860846;29;20029;-82
2021/07/21 02:53:00;;;;;;;21.20;11.60;;;;;;;14.70;100.00;101147.84;4862713;29;20057;-82
2021/07/21 02:55:32;;;;;;;18.10;9.93;;;;;;;14.80;100.00;101151.06;4850340;29;20483;-82
2021/07/21 02:58:20;;;;;;;17.08;10.18;;;;;;;14.80;100.00;101156.28;4866675;29;20025;-82
2021/07/21 03:00:46;;;;;;;21.90;10.57;;;;;;;14.75;100.00;101159.03;4849185;29;20032;-81
2021/07/21 03:03:16;;;;;;;17.42;10.30;;;;;;;14.73;100.00;101151.22;4845502;29;20032;-81
2021/07/21 03:05:43;;;;;;;16.73;10.02;;;;;;;14.74;100.00;101150.31;4844233;29;20054;-82
2021/07/21 03:08:11;;;;;;;18.40;10.20;;;;;;;14.77;100.00;101154.59;4845759;29;20040;-81
2021/07/21 03:10:40;;;;;;;19.27;10.80;;;;;;;14.78;100.00;101151.13;4850292;29;20068;-81
2021/07/21 03:13:11;;;;;;;17.45;9.48;;;;;;;14.78;100.00;101148.50;4865726;29;20070;-81
2021/07/21 03:15:40;;;;;;;16.83;9.85;;;;;;;14.83;100.00;101145.75;4848320;29;20044;-82
2021/07/21 03:18:19;;;;;;;15.48;10.02;;;;;;;14.82;100.00;101155.34;4865059;29;20040;-82
2021/07/21 03:20:47;;;;;;;12.82;9.10;;;;;;;14.81;100.00;101158.88;4868007;29;20032;-82
2021/07/21 03:23:13;;;;;;;16.67;10.18;;;;;;;14.85;100.00;101144.81;4869145;29;20033;-82
2021/07/21 03:25:41;;;;;;;16.45;10.10;;;;;;;14.87;100.00;101158.72;4852339;29;20061;-82
2021/07/21 03:28:07;;;;;;;17.02;9.60;;;;;;;14.77;100.00;101157.22;4851234;29;20120;-81
2021/07/21 03:30:34;;;;;;;17.38;9.43;;;;;;;14.82;100.00;101155.34;4851229;29;20049;-81
2021/07/21 03:33:00;;;;;;;13.68;9.00;;;;;;;14.87;100.00;101153.50;4868288;29;20127;-81
2021/07/21 03:35:28;;;;;;;16.45;9.63;;;;;;;14.85;100.00;101150.06;4851239;29;20037;-82
2021/07/21 03:37:54;;;;;;;17.25;9.80;;;;;;;14.87;100.00;101158.72;4867752;29;20041;-82
2021/07/21 03:40:20;;;;;;;15.50;9.98;;;;;;;14.84;100.00;101152.69;4851404;29;20116;-81
2021/07/21 03:42:48;;;;;;;16.58;10.20;;;;;;;14.85;100.00;101155.28;4850814;29;20029;-81
2021/07/21 03:45:14;;;;;;;18.15;10.55;;;;;;;14.88;100.00;101154.34;4851160;29;20030;-81
2021/07/21 03:47:42;;;;;;;18.83;10.38;;;;;;;14.96;100.00;101154.97;4867384;29;20124;-82
2021/07/21 03:50:08;;;;;;;18.67;11.27;;;;;;;14.89;100.00;101154.28;4867627;29;20022;-82
2021/07/21 03:52:35;;;;;;;17.10;10.13;;;;;;;14.91;100.00;101159.47;4868178;29;20409;-81
2021/07/21 03:55:02;;;;;;;20.05;11.45;;;;;;;14.87;100.00;101158.72;4850120;29;20486;-81
2021/07/21 03:57:32;;;;;;;18.15;11.15;;;;;;;14.92;100.00;101159.44;4850457;29;20063;-81
2021/07/21 03:59:57;;;;;;;18.90;11.77;;;;;;;14.86;100.00;101164.81;4850224;29;20039;-81
2021/07/21 04:02:24;;;;;;;18.42;11.98;;;;;;;14.90;100.00;101162.97;4850188;29;20022;-81
2021/07/21 04:04:50;;;;;;;18.67;12.00;;;;;;;14.87;100.00;101170.88;4850190;29;20069;-81
2021/07/21 04:07:18;;;;;;;19.27;12.70;;;;;;;14.87;100.00;101169.16;4849587;29;20042;-82
2021/07/21 04:09:46;;;;;;;18.58;12.45;;;;;;;14.86;100.00;101170.03;4849686;29;20109;-81
2021/07/21 04:12:14;;;;;;;24.83;14.18;;;;;;;14.82;100.00;101171.03;4866211;29;20018;-82
2021/07/21 04:14:43;;;;;;;20.27;13.57;;;;;;;14.85;100.00;101168.34;4849436;29;20022;-82
2021/07/21 04:17:08;;;;;;;23.25;13.27;;;;;;;14.85;100.00;101167.47;4865687;29;20101;-82
2021/07/21 04:19:35;;;;;;;22.58;14.45;;;;;;;14.83;100.00;101172.72;4866271;29;20025;-82
2021/07/21 04:22:00;;;;;;;21.05;13.10;;;;;;;14.83;100.00;101177.94;4865983;29;20030;-82
2021/07/21 04:24:26;;;;;;;24.48;15.05;;;;;;;14.88;100.00;101172.63;4866190;29;20504;-81
2021/07/21 04:26:52;;;;;;;24.23;13.18;;;;;;;14.84;100.00;101174.47;4865503;29;20078;-82
2021/07/21 04:29:22;;;;;;;21.38;13.95;;;;;;;14.89;100.00;101175.19;4849019;29;20033;-81
2021/07/21 04:31:48;;;;;;;19.75;14.23;;;;;;;14.88;100.00;101176.09;4864657;29;20040;-81
2021/07/21 04:34:14;;;;;;;23.67;14.50;;;;;;;14.97;100.00;101180.22;4848884;29;20025;-82
2021/07/21 04:36:41;;;;;;;20.52;13.38;;;;;;;15.12;100.00;101185.03;4865714;29;20039;-82
2021/07/21 04:39:08;;;;;;;20.30;12.88;;;;;;;15.19;100.00;101175.28;4848855;29;20030;-82
2021/07/21 04:41:35;;;;;;;20.70;13.45;;;;;;;15.27;100.00;101182.88;4848043;29;20033;-82
2021/07/21 04:44:04;;;;;;;22.13;13.75;;;;;;;15.14;100.00;101184.97;4865498;29;20086;-81
2021/07/21 04:46:34;;;;;;;25.02;13.52;;;;;;;15.19;100.00;101188.34;4849910;29;20036;-82
2021/07/21 04:49:01;;;;;;;23.23;14.00;;;;;;;15.12;100.00;101182.41;4866517;29;20037;-81
2021/07/21 04:51:29;;;;;;;21.85;14.20;;;;;;;15.16;100.00;101186.66;4866956;29;20494;-81
2021/07/21 04:54:00;;;;;;;21.52;13.75;;;;;;;15.14;100.00;101192.81;4866475;29;20384;-81
2021/07/21 04:56:25;;;;;;;21.10;13.93;;;;;;;15.23;100.00;101191.72;4849611;29;20033;-82
2021/07/21 04:58:51;;;;;;;23.17;13.73;;;;;;;15.26;100.00;101189.00;4849479;29;20031;-81
2021/07/21 05:01:16;;;;;;;23.83;14.10;;;;;;;15.27;100.00;101193.34;4849443;29;20029;-81
2021/07/21 05:03:41;;;;;;;21.70;13.40;;;;;;;15.37;100.00;101200.91;4849179;29;20025;-81
2021/07/21 05:06:07;;;;;;;23.38;13.30;;;;;;;15.38;100.00;101207.81;4866054;29;20033;-82
2021/07/21 05:08:32;;;;;;;22.73;14.20;;;;;;;15.35;100.00;101213.13;4865935;29;20554;-82
2021/07/21 05:10:58;;;;;;;24.67;13.32;;;;;;;15.42;100.00;101213.81;4866286;29;20026;-82
2021/07/21 05:13:23;;;;;;;18.80;13.00;;;;;;;15.46;100.00;101205.00;4849341;29;20064;-82
2021/07/21 05:15:49;;;;;;;20.45;14.20;;;;;;;15.45;100.00;101213.75;4865999;29;20052;-82
2021/07/21 05:18:14;;;;;;;23.10;14.07;;;;;;;15.49;100.00;101220.63;4848862;29;20029;-81
2021/07/21 05:20:40;;;;;;;21.35;13.80;;;;;;;15.41;100.00;101212.97;4865723;29;20045;-81
2021/07/21 05:23:06;;;;;;;22.13;13.38;;;;;;;15.57;100.00;101212.53;4848939;29;20037;-81
2021/07/21 05:25:31;;;;;;;21.67;14.00;;;;;;;15.54;100.00;101210.00;4865703;29;20029;-82
2021/07/21 05:27:56;;;;;;;22.38;14.30;;;;;;;15.53;100.00;101216.16;4865556;29;20029;-81
2021/07/21 05:30:22;;;;;;;22.90;12.77;;;;;;;15.58;100.00;101214.28;4849232;29;20033;-81
2021/07/21 05:32:47;;;;;;;20.27;12.35;;;;;;;15.68;100.00;101209.66;4849508;29;20033;-81
2021/07/21 05:35:13;;;;;;;21.33;11.57;;;;;;;15.78;100.00;101217.19;4849151;29;20041;-81
2021/07/21 05:37:39;;;;;;;18.15;11.15;;;;;;;15.92;100.00;101218.53;4848779;29;20119;-81
2021/07/21 05:40:06;;;;;;;18.85;12.07;;;;;;;15.76;100.00;101216.38;4849169;29;20029;-82
2021/07/21 05:42:31;;;;;;;20.30;12.30;;;;;;;15.84;100.00;101211.78;4847508;29;20445;-81
2021/07/21 05:44:56;;;;;;;17.27;10.95;;;;;;;15.80;100.00;101223.25;4848439;29;20037;-81
2021/07/21 05:47:22;;;;;;;21.95;11.23;;;;;;;15.91;100.00;101227.28;4864252;29;20029;-82
2021/07/21 05:49:47;;;;;;;17.48;11.30;;;;;;;15.87;100.00;101222.16;4865949;29;20112;-82
2021/07/21 05:52:12;;;;;;;19.90;12.23;;;;;;;16.00;100.00;101227.88;4849219;29;20033;-81
2021/07/21 05:54:39;;;;;;;22.15;11.73;;;;;;;15.86;100.00;101227.44;4865625;29;20093;-82
2021/07/21 05:57:08;;;;;;;20.60;11.40;;;;;;;15.78;100.00;101230.25;4850119;29;20029;-81
2021/07/21 05:59:34;;;;;;;20.35;10.77;;;;;;;15.87;100.00;101232.63;4849938;29;20029;-82
2021/07/21 06:01:59;;;;;;;18.85;11.30;;;;;;;15.99;100.00;101226.16;4848123;29;20396;-82
2021/07/21 06:04:25;;;;;;;18.00;10.52;;;;;;;16.04;100.00;101228.63;4849559;29;20064;-83
2021/07/21 06:06:51;;;;;;;17.65;11.45;;;;;;;16.04;100.00;101237.38;4848866;29;20413;-83
2021/07/21 06:09:16;;;;;;;19.83;11.25;;;;;;;16.11;100.00;101238.03;4848887;29;20033;-83
2021/07/21 06:11:42;;;;;;;18.77;10.85;;;;;;;16.02;100.00;101247.00;4848952;29;20026;-82
2021/07/21 06:14:08;;;;;;;17.27;10.60;;;;;;;15.99;100.00;101247.09;4847886;29;20025;-83
2021/07/21 06:16:33;;;;;;;21.20;11.07;;;;;;;15.98;100.00;101252.34;4848317;29;20402;-82
2021/07/21 06:18:58;;;;;;;19.08;11.18;;;;;;;15.96;100.00;101247.19;4849392;29;20483;-82
2021/07/21 06:21:24;;;;;;;15.02;9.82;;;;;;;16.00;100.00;101247.94;4850205;29;20034;-82
2021/07/21 06:23:50;;;;;;;18.52;10.73;;;;;;;16.07;100.00;101247.72;4849392;29;20454;-83
2021/07/21 06:26:15;;;;;;;19.00;10.50;;;;;;;16.21;100.00;101241.22;4849451;29;20633;-83
2021/07/21 06:28:41;;;;;;;19.75;11.30;;;;;;;16.42;100.00;101244.94;4848410;29;20025;-83
2021/07/21 06:31:06;;;;;;;14.43;9.70;;;;;;;16.54;100.00;101249.78;4849106;29;20479;-83
2021/07/21 06:33:32;;;;;;;17.17;10.48;;;;;;;16.33;100.00;101251.31;4866172;29;20033;-83
2021/07/21 06:35:58;;;;;;;16.98;10.20;;;;;;;16.53;100.00;101253.28;4848038;29;20378;-83
2021/07/21 06:38:24;;;;;;;18.52;10.55;;;;;;;16.49;100.00;101257.78;4865485;29;20029;-83
2021/07/21 06:40:49;;;;;;;17.27;10.20;;;;;;;16.73;100.00;101258.75;4865327;29;20032;-82
2021/07/21 06:43:15;;;;;;;21.35;10.80;;;;;;;16.87;100.00;101260.09;4848463;29;20125;-82
2021/07/21 06:45:40;;;;;;;17.65;9.48;;;;;;;17.10;100.00;101265.44;4864810;29;20029;-83
2021/07/21 06:48:06;;;;;;;16.40;9.48;;;;;;;17.25;100.00;101262.28;4848405;29;20093;-83
2021/07/21 06:50:32;;;;;;;17.27;10.13;;;;;;;17.53;100.00;101263.06;4849042;29;20459;-83
2021/07/21 06:52:57;;;;;;;17.73;9.98;;;;;;;17.74;100.00;101264.06;4848098;29;20112;-83
2021/07/21 06:55:23;;;;;;;19.20;10.30;;;;;;;17.78;100.00;101269.16;4851496;29;20081;-82
2021/07/21 06:57:48;;;;;;;17.00;9.18;;;;;;;17.67;100.00;101274.78;4850069;29;20500;-82
2021/07/21 07:00:14;;;;;;;15.77;9.27;;;;;;;17.68;100.00;101271.25;4850480;29;20036;-81
2021/07/21 07:02:39;;;;;;;17.27;9.68;;;;;;;17.85;100.00;101272.41;4850283;29;20467;-82
2021/07/21 07:05:05;;;;;;;15.98;9.15;;;;;;;18.21;100.00;101278.06;4867350;29;20109;-82
2021/07/21 07:07:30;;;;;;;16.55;9.02;;;;;;;18.15;100.00;101273.88;4850190;29;20025;-81
2021/07/21 07:09:56;;;;;;;18.35;9.52;;;;;;;18.15;100.00;101273.88;4850292;29;20044;-82
2021/07/21 07:12:21;;;;;;;17.80;9.85;;;;;;;18.49;100.00;101275.19;4867020;29;20026;-82
2021/07/21 07:14:46;;;;;;;16.23;8.30;;;;;;;18.75;100.00;101276.81;4849851;29;20120;-82
2021/07/21 07:17:12;;;;;;;18.48;9.85;;;;;;;18.80;100.00;101287.13;4849883;29;20057;-82
2021/07/21 07:19:37;;;;;;;16.17;9.57;;;;;;;18.96;100.00;101287.34;4850087;29;20101;-82
2021/07/21 07:22:03;;;;;;;13.65;9.25;;;;;;;18.89;100.00;101278.88;4850131;29;20043;-82
2021/07/21 07:24:29;;;;;;;17.48;9.60;;;;;;;18.44;100.00;101285.03;4849778;29;20585;-82
2021/07/21 07:27:01;;;;;;;14.98;9.57;;;;;;;18.57;100.00;101285.41;4866596;29;20407;-82
2021/07/21 07:29:26;;;;;;;17.98;9.20;;;;;;;18.38;100.00;101272.13;4866189;29;20037;-82
2021/07/21 07:31:52;;;;;;;13.93;8.13;;;;;;;18.95;100.00;101277.78;4849193;29;20081;-82
2021/07/21 07:34:19;;;;;;;17.10;9.35;;;;;;;19.02;100.00;101280.06;4849447;29;20124;-82
2021/07/21 07:36:45;;;;;;;15.38;9.60;;;;;;;18.60;100.00;101285.28;4865900;29;20033;-81
2021/07/21 07:39:10;;;;;;;18.48;8.88;;;;;;;18.53;100.00;101282.03;4849510;29;20036;-82
2021/07/21 07:41:37;;;;;;;14.38;8.75;;;;;;;18.45;100.00;101281.50;4849635;29;20033;-82
2021/07/21 07:44:04;;;;;;;13.88;9.20;;;;;;;18.13;100.00;101283.63;4866246;29;20406;-82
2021/07/21 07:46:30;;;;;;;14.52;9.15;;;;;;;18.54;100.00;101275.88;4866421;29;20025;-82
2021/07/21 07:48:57;;;;;;;16.38;9.20;;;;;;;18.57;100.00;101275.75;4849956;29;20105;-80
2021/07/21 07:51:24;;;;;;;14.60;8.57;;;;;;;18.17;100.00;101285.19;4848622;29;20522;-81
2021/07/21 07:53:50;;;;;;;17.27;9.30;;;;;;;18.39;100.00;101287.00;4865693;29;20061;-80
2021/07/21 07:56:15;;;;;;;14.98;8.93;;;;;;;19.09;100.00;101286.78;4865948;29;20033;-81
2021/07/21 07:58:40;;;;;;;14.77;9.20;;;;;;;18.99;100.00;101279.34;4866307;29;20127;-82
2021/07/21 08:01:06;;;;;;;13.25;8.70;;;;;;;19.00;100.00;101283.69;4865632;29;20029;-82
2021/07/21 08:03:31;;;;;;;15.57;8.93;;;;;;;18.81;100.00;101278.31;4849358;29;20132;-81
2021/07/21 08:05:59;;;;;;;15.65;9.02;;;;;;;18.69;100.00;101281.41;4865203;29;20116;-82
2021/07/21 08:08:25;;;;;;;17.60;9.15;;;;;;;18.49;100.00;101275.19;4849230;29;20029;-82
2021/07/21 08:10:50;;;;;;;16.20;8.60;;;;;;;18.79;100.00;101280.19;4866730;29;20037;-82
2021/07/21 08:13:15;;;;;;;15.05;9.00;;;;;;;19.04;100.00;101272.97;4849803;29;20033;-83
2021/07/21 08:15:41;;;;;;;15.48;8.13;;;;;;;19.23;100.00;101280.09;4869240;29;20026;-82
2021/07/21 08:18:06;;;;;;;14.07;8.18;;;;;;;19.27;100.00;101273.75;4869841;29;20050;-83
2021/07/21 08:20:32;;;;;;;18.27;9.40;;;;;;;18.67;100.00;101281.50;4856182;29;20108;-83
2021/07/21 08:22:57;;;;;;;14.30;8.30;;;;;;;18.40;100.00;101281.66;4852133;29;20048;-84
2021/07/21 08:25:24;;;;;;;13.00;8.25;;;;;;;18.33;100.00;101280.19;4852394;29;20021;-82
2021/07/21 08:27:50;;;;;;;15.82;9.25;;;;;;;18.26;100.00;101280.53;4852518;29;20390;-82
2021/07/21 08:30:16;;;;;;;14.13;8.48;;;;;;;17.97;100.00;101279.84;4851072;29;20148;-82
2021/07/21 08:32:48;;;;;;;13.82;7.45;;;;;;;17.62;100.00;101294.22;4851146;29;20082;-82
2021/07/21 08:35:18;;;;;;;10.23;6.22;;;;;;;17.19;100.00;101287.84;4867786;29;20394;-81
2021/07/21 08:37:44;;;;;;;10.65;5.97;;;;;;;16.86;100.00;101287.19;4850647;29;20064;-81
2021/07/21 08:40:11;;;;;;;10.73;5.25;;;;;;;16.63;100.00;101298.41;4850166;29;20458;-81
2021/07/21 08:42:37;;;;;;;12.27;5.70;;;;;;;16.75;100.00;101305.88;4850375;29;20034;-81
2021/07/21 08:45:04;;;;;;;11.50;5.75;;;;;;;16.63;100.00;101299.25;4849285;29;20061;-81
2021/07/21 08:47:30;;;;;;;12.02;5.63;;;;;;;16.57;100.00;101302.06;4849234;29;20050;-81
2021/07/21 08:49:55;;;;;;;13.73;5.78;;;;;;;16.23;100.00;101313.56;4849677;29;20030;-81
2021/07/21 08:52:22;;;;;;;9.40;5.45;;;;;;;16.20;100.00;101315.41;4849276;29;20041;-81
2021/07/21 08:54:49;;;;;;;10.20;4.93;;;;;;;16.20;100.00;101325.88;4865723;29;20025;-81
2021/07/21 08:57:15;;;;;;;12.93;5.78;;;;;;;16.26;100.00;101323.94;4865698;29;20116;-81
2021/07/21 08:59:45;;;;;;;10.13;5.65;;;;;;;16.25;100.00;101331.81;4865398;29;20052;-80
2021/07/21 09:02:14;;;;;;;9.60;5.22;;;;;;;16.20;100.00;101334.59;4849100;29;20108;-80
2021/07/21 09:04:40;;;;;;;11.50;5.57;;;;;;;16.06;100.00;101336.75;4865809;29;20026;-81
2021/07/21 09:07:09;;;;;;;8.75;5.15;;;;;;;16.05;100.00;101340.25;4848893;29;20127;-80
2021/07/21 09:09:35;;;;;;;8.70;5.60;;;;;;;15.99;100.00;101341.28;4848794;29;20078;-80
2021/07/21 09:12:01;;;;;;;9.23;5.03;;;;;;;15.90;100.00;101346.78;4864703;29;20428;-80
2021/07/21 09:14:27;;;;;;;10.95;5.05;;;;;;;15.81;100.00;101342.66;4864471;29;20037;-80
2021/07/21 09:17:12;;;;;;;8.07;5.20;;;;;;;15.84;100.00;101341.72;4848272;29;20029;-80
2021/07/21 09:19:40;;;;;;;12.40;5.85;;;;;;;15.76;100.00;101347.16;4848493;29;20030;-81
2021/07/21 09:22:22;;;;;;;10.80;5.47;;;;;;;15.76;100.00;101354.13;4865280;29;20039;-80
2021/07/21 09:25:18;;;;;;;12.13;5.30;;;;;;;15.78;100.00;101357.59;4848011;29;20030;-82
2021/07/21 09:27:46;;;;;;;12.48;6.43;;;;;;;15.75;100.00;101361.13;4849275;29;20029;-81
2021/07/21 09:30:15;;;;;;;10.55;6.30;;;;;;;15.92;100.00;101358.06;4849714;29;20075;-81
2021/07/21 09:33:08;;;;;;;11.82;6.53;;;;;;;15.87;100.00;101355.56;4848809;29;20022;-80
2021/07/21 09:35:35;;;;;;;9.48;6.28;;;;;;;15.93;100.00;101356.31;4848609;29;20059;-81
2021/07/21 09:38:13;;;;;;;10.18;6.60;;;;;;;15.81;100.00;101357.50;4848845;29;20052;-80
2021/07/21 09:40:43;;;;;;;11.15;6.45;;;;;;;15.92;100.00;101360.69;4849142;29;20029;-80
2021/07/21 09:43:29;;;;;;;13.77;7.18;;;;;;;15.69;100.00;101360.44;4847740;29;20029;-80
2021/07/21 09:46:12;;;;;;;12.90;6.95;;;;;;;15.99;100.00;101362.22;4848474;29;20070;-81
2021/07/21 09:48:38;;;;;;;12.32;6.97;;;;;;;15.85;100.00;101361.72;4848542;29;20033;-81
2021/07/21 09:51:04;;;;;;;12.60;7.38;;;;;;;16.05;100.00;101362.06;4848971;29;20022;-80
2021/07/21 09:53:40;;;;;;;11.95;6.90;;;;;;;16.35;100.00;101356.84;4865404;29;20052;-80
2021/07/21 09:56:06;;;;;;;12.15;6.93;;;;;;;16.69;100.00;101356.69;4849137;29;20040;-80
2021/07/21 09:58:34;;;;;;;11.05;7.13;;;;;;;17.05;100.00;101360.84;4865206;29;20387;-80
2021/07/21 10:01:00;;;;;;;9.70;6.63;;;;;;;17.21;100.00;101349.81;4865348;29;20056;-80
2021/07/21 10:03:27;;;;;;;12.73;7.32;;;;;;;17.17;100.00;101355.19;4864659;29;20045;-80
2021/07/21 10:06:10;;;;;;;14.05;7.50;;;;;;;17.48;100.00;101357.66;4847972;29;20033;-80
2021/07/21 10:08:43;;;;;;;11.98;6.72;;;;;;;17.36;100.00;101360.69;4864729;29;20400;-80
2021/07/21 10:11:22;;;;;;;10.88;6.97;;;;;;;17.40;100.00;101364.94;4864706;29;20026;-80
2021/07/21 10:14:12;;;;;;;11.25;7.05;;;;;;;16.85;100.00;101364.09;4864930;29;20098;-80
2021/07/21 10:16:44;;;;;;;10.85;6.43;;;;;;;16.51;100.00;101362.50;4864814;29;20045;-80
2021/07/21 10:19:21;;;;;;;10.30;5.93;;;;;;;16.68;100.00;101365.44;4865037;29;20025;-81
2021/07/21 10:21:51;;;;;;;9.07;5.40;;;;;;;16.87;100.00;101357.03;4847912;29;20021;-81
2021/07/21 10:24:17;;;;;;;9.50;4.82;;;;;;;16.76;100.00;101358.25;4848380;29;20074;-81
2021/07/21 10:26:43;;;;;;;9.23;4.93;;;;;;;16.52;100.00;101356.34;4851295;29;20025;-81
2021/07/21 10:29:10;;;;;;;9.88;5.60;;;;;;;16.78;100.00;101355.59;4861632;29;20033;-80
2021/07/21 10:31:36;;;;;;;9.80;4.72;;;;;;;16.70;100.00;101366.25;4864673;29;20482;-80
2021/07/21 10:34:02;;;;;;;7.80;4.82;;;;;;;16.57;100.00;101362.31;4864975;29;20025;-80
2021/07/21 10:36:29;;;;;;;9.45;5.25;;;;;;;16.56;100.00;101358.84;4880966;29;20061;-80
2021/07/21 10:38:55;;;;;;;8.35;4.10;;;;;;;16.48;100.00;101362.59;4864497;29;20025;-81
2021/07/21 10:41:21;;;;;;;10.60;4.63;;;;;;;16.45;100.00;101355.66;4853608;29;20077;-81
2021/07/21 10:43:53;;;;;;;7.55;3.90;;;;;;;16.42;100.00;101354.91;4853753;29;20045;-79
2021/07/21 10:46:37;;;;;;;8.25;4.50;;;;;;;16.67;100.00;101350.63;4870547;29;20025;-79
2021/07/21 10:49:14;;;;;;;11.18;5.10;;;;;;;16.82;100.00;101344.09;4870449;29;20499;-79
2021/07/21 10:52:11;;;;;;;7.32;4.28;;;;;;;17.30;100.00;101345.16;4870593;29;20077;-79
2021/07/21 11:00:16;;;;;;;8.77;5.35;;;;;;;17.48;100.00;101339.28;4869251;29;20069;-79
2021/07/21 11:02:45;;;;;;;9.20;4.40;;;;;;;17.29;100.00;101343.44;4868976;29;20442;-79
2021/07/21 11:05:39;;;;;;;9.40;5.03;;;;;;;17.32;100.00;101341.56;4868900;29;20029;-79
2021/07/21 11:08:16;;;;;;;8.65;4.70;;;;;;;17.25;100.00;101340.94;4851328;29;20028;-79
2021/07/21 11:10:43;;;;;;;7.93;4.85;;;;;;;17.22;100.00;101346.28;4851603;29;20120;-79
2021/07/21 11:13:14;;;;;;;9.23;5.22;;;;;;;17.46;100.00;101343.75;4867603;29;20534;-79
2021/07/21 11:15:47;;;;;;;9.65;5.00;;;;;;;17.74;100.00;101340.16;4867708;29;20145;-78
2021/07/21 11:18:21;;;;;;;12.00;4.93;;;;;;;18.00;100.00;101342.72;4850935;29;20053;-78
2021/07/21 11:21:12;;;;;;;8.65;5.28;;;;;;;17.74;100.00;101345.41;4851185;29;20034;-78
2021/07/21 11:23:46;;;;;;;8.07;4.13;;;;;;;17.83;100.00;101338.09;4867881;29;20495;-78